Time;durP1;ratioP1;P1;durP2;ratioP2;P2;SDS_P1;SDS_P2;PMS_P1;PMS_P2;Temp;Humidity;BMP_temperature;BMP_pressure;BME280_temperature;BME280_humidity;BME280_pressure;Samples;Min_cycle;Max_cycle;Signal;HPM_P1;HPM_P2
2023/04/22 00:02:00;;;;;;;6.27;4.70;;;9.70;99.90;;;;;;4880210;29;20740;-79
2023/04/22 00:04:32;;;;;;;9.73;4.83;;;9.60;99.90;;;;;;4880561;29;20242;-79
2023/04/22 00:07:01;;;;;;;10.37;4.90;;;9.50;99.90;;;;;;4880623;29;20199;-78
2023/04/22 00:09:29;;;;;;;8.57;5.07;;;9.40;99.90;;;;;;4880306;29;20218;-78
2023/04/22 00:11:57;;;;;;;8.17;5.17;;;9.30;99.90;;;;;;4880330;29;20257;-77
2023/04/22 00:14:25;;;;;;;7.57;5.00;;;9.20;99.90;;;;;;4880434;29;20239;-77
2023/04/22 00:16:54;;;;;;;8.10;5.20;;;9.10;99.90;;;;;;4880171;29;20222;-76
2023/04/22 00:19:22;;;;;;;6.70;5.50;;;9.10;99.90;;;;;;4883931;29;20220;-75
2023/04/22 00:21:51;;;;;;;11.83;5.10;;;9.00;99.90;;;;;;4898756;29;20225;-78
2023/04/22 00:24:19;;;;;;;7.10;5.70;;;9.00;99.90;;;;;;4896028;29;20238;-76
2023/04/22 00:26:47;;;;;;;9.13;5.37;;;8.90;99.90;;;;;;4881357;29;20230;-76
2023/04/22 00:29:16;;;;;;;10.77;5.10;;;8.80;99.90;;;;;;4884538;29;20704;-75
2023/04/22 00:31:44;;;;;;;6.40;5.37;;;8.80;99.90;;;;;;4885642;29;20622;-73
2023/04/22 00:34:12;;;;;;;8.00;5.90;;;8.70;99.90;;;;;;4883234;29;20272;-78
2023/04/22 00:36:40;;;;;;;7.90;5.13;;;8.60;99.90;;;;;;4881239;29;20218;-77
2023/04/22 00:39:10;;;;;;;8.80;6.40;;;8.50;99.90;;;;;;4879472;29;20218;-77
2023/04/22 00:41:39;;;;;;;8.37;5.50;;;8.40;99.90;;;;;;4879315;29;20273;-74
2023/04/22 00:44:09;;;;;;;8.53;5.73;;;8.40;99.90;;;;;;4879408;29;20238;-77
2023/04/22 00:46:38;;;;;;;8.00;5.47;;;8.30;99.90;;;;;;4879837;29;20205;-78
2023/04/22 00:49:07;;;;;;;8.73;6.00;;;8.30;99.90;;;;;;4879660;29;20239;-77
2023/04/22 00:51:35;;;;;;;8.73;6.10;;;8.20;99.90;;;;;;4879432;29;20615;-77
2023/04/22 00:54:05;;;;;;;9.13;6.37;;;8.20;99.90;;;;;;4881528;29;20213;-75
2023/04/22 00:56:38;;;;;;;10.17;6.67;;;8.10;99.90;;;;;;4882335;29;20210;-77
2023/04/22 00:59:06;;;;;;;11.27;6.90;;;8.10;99.90;;;;;;4879321;29;20218;-75
2023/04/22 01:01:34;;;;;;;9.67;6.10;;;8.00;99.90;;;;;;4882619;29;20227;-76
2023/04/22 01:04:03;;;;;;;10.07;6.63;;;8.00;99.90;;;;;;4881758;29;20230;-74
2023/04/22 01:06:34;;;;;;;8.83;6.60;;;7.90;99.90;;;;;;4880620;29;20214;-73
2023/04/22 01:09:02;;;;;;;9.97;6.93;;;7.90;99.90;;;;;;4879001;29;20585;-75
2023/04/22 01:11:30;;;;;;;7.93;6.70;;;7.90;99.90;;;;;;4879435;29;20313;-75
2023/04/22 01:14:00;;;;;;;10.47;6.33;;;7.80;99.90;;;;;;4886733;29;20217;-77
2023/04/22 01:16:29;;;;;;;8.30;6.23;;;7.80;99.90;;;;;;4879250;29;20590;-79
2023/04/22 01:18:58;;;;;;;7.97;6.17;;;7.80;99.90;;;;;;4889406;29;20221;-79
2023/04/22 01:21:26;;;;;;;10.63;6.80;;;7.70;99.90;;;;;;4878865;29;20219;-79
2023/04/22 01:23:56;;;;;;;11.03;6.83;;;7.70;99.90;;;;;;4878263;29;20231;-76
2023/04/22 01:26:24;;;;;;;8.63;6.50;;;7.70;99.90;;;;;;4878782;29;20241;-75
2023/04/22 01:28:52;;;;;;;12.40;6.80;;;7.70;99.90;;;;;;4881867;29;20213;-77
2023/04/22 01:31:21;;;;;;;8.80;6.60;;;7.60;99.90;;;;;;4897126;29;20213;-78
2023/04/22 01:33:50;;;;;;;9.40;6.87;;;7.60;99.90;;;;;;4898295;29;20487;-77
2023/04/22 01:36:18;;;;;;;9.47;6.50;;;7.50;99.90;;;;;;4897509;29;20591;-76
2023/04/22 01:38:46;;;;;;;7.40;6.37;;;7.50;99.90;;;;;;4881751;29;20222;-77
2023/04/22 01:41:16;;;;;;;8.40;6.47;;;7.40;99.90;;;;;;4878734;29;20317;-75
2023/04/22 01:43:45;;;;;;;9.47;6.90;;;7.40;99.90;;;;;;4878558;29;20229;-75
2023/04/22 01:46:13;;;;;;;10.23;7.70;;;7.40;99.90;;;;;;4891847;29;20214;-76
2023/04/22 01:48:41;;;;;;;10.03;7.13;;;7.40;99.90;;;;;;4878298;29;20697;-77
2023/04/22 01:51:09;;;;;;;8.40;7.10;;;7.40;99.90;;;;;;4878643;29;20213;-75
2023/04/22 01:53:37;;;;;;;7.80;6.30;;;7.30;99.90;;;;;;4878199;29;20210;-79
2023/04/22 01:56:06;;;;;;;8.33;6.87;;;7.30;99.90;;;;;;4884577;29;20225;-79
2023/04/22 01:58:35;;;;;;;9.83;6.77;;;7.30;99.90;;;;;;4896875;29;20697;-78
2023/04/22 02:01:03;;;;;;;10.73;7.40;;;7.20;99.90;;;;;;4896729;29;20759;-78
2023/04/22 02:03:32;;;;;;;9.37;7.53;;;7.20;99.90;;;;;;4896723;29;20319;-78
2023/04/22 02:06:00;;;;;;;10.90;7.73;;;7.30;99.90;;;;;;4883696;29;20214;-79
2023/04/22 02:08:31;;;;;;;10.40;7.40;;;7.30;99.90;;;;;;4878235;29;20218;-78
2023/04/22 02:10:59;;;;;;;9.00;6.97;;;7.30;99.90;;;;;;4878006;29;20764;-79
2023/04/22 02:13:36;;;;;;;10.70;6.90;;;7.30;99.90;;;;;;4878328;29;20245;-79
2023/04/22 02:16:05;;;;;;;8.70;6.93;;;7.20;99.90;;;;;;4878759;29;20210;-77
2023/04/22 02:18:33;;;;;;;8.90;7.10;;;7.20;99.90;;;;;;4896611;29;20213;-79
2023/04/22 02:21:02;;;;;;;9.87;7.33;;;7.20;99.90;;;;;;4897775;29;20668;-77
2023/04/22 02:23:30;;;;;;;9.43;7.30;;;7.20;99.90;;;;;;4890238;29;20248;-79
2023/04/22 02:25:58;;;;;;;9.77;7.13;;;7.10;99.90;;;;;;4882368;29;20254;-78
2023/04/22 02:28:26;;;;;;;9.27;7.17;;;7.10;99.90;;;;;;4881217;29;20222;-75
2023/04/22 02:30:56;;;;;;;11.80;7.57;;;7.10;99.90;;;;;;4879353;29;20218;-80
2023/04/22 02:33:24;;;;;;;11.77;7.37;;;7.00;99.90;;;;;;4881441;29;20241;-78
2023/04/22 02:35:52;;;;;;;9.60;7.30;;;7.00;99.90;;;;;;4881920;29;20265;-78
2023/04/22 02:38:20;;;;;;;9.77;6.90;;;7.00;99.90;;;;;;4880917;29;20661;-75
2023/04/22 02:40:48;;;;;;;10.53;6.93;;;7.00;99.90;;;;;;4878752;29;20224;-79
2023/04/22 02:43:16;;;;;;;14.20;7.73;;;6.90;99.90;;;;;;4879564;29;20677;-75
2023/04/22 02:45:44;;;;;;;8.97;6.97;;;6.90;99.90;;;;;;4882492;29;20623;-76
2023/04/22 02:48:14;;;;;;;8.87;7.13;;;6.90;99.90;;;;;;4882001;29;20336;-75
2023/04/22 02:50:42;;;;;;;7.63;6.77;;;6.80;99.90;;;;;;4881959;29;20214;-78
2023/04/22 02:53:10;;;;;;;12.40;7.60;;;6.80;99.90;;;;;;4881633;29;20237;-78
2023/04/22 02:55:41;;;;;;;8.03;6.93;;;6.70;99.90;;;;;;4881774;29;20214;-77
2023/04/22 02:58:09;;;;;;;9.50;7.40;;;6.70;99.90;;;;;;4881806;29;20214;-79
2023/04/22 03:00:37;;;;;;;12.10;7.80;;;6.60;99.90;;;;;;4887865;29;20218;-78
2023/04/22 03:03:05;;;;;;;9.40;7.40;;;6.60;99.90;;;;;;4899282;29;20602;-78
2023/04/22 03:05:35;;;;;;;10.57;7.83;;;6.60;99.90;;;;;;4899862;29;20268;-79
2023/04/22 03:08:03;;;;;;;10.70;7.63;;;6.60;99.90;;;;;;4900185;29;20296;-77
2023/04/22 03:10:32;;;;;;;8.57;7.30;;;6.60;99.90;;;;;;4881650;29;20304;-79
2023/04/22 03:13:00;;;;;;;11.17;7.67;;;6.60;99.90;;;;;;4880903;29;20304;-80
2023/04/22 03:15:28;;;;;;;13.07;8.13;;;6.50;99.90;;;;;;4887869;29;20234;-76
2023/04/22 03:17:56;;;;;;;9.77;7.93;;;6.50;99.90;;;;;;4897058;29;20216;-80
2023/04/22 03:20:24;;;;;;;10.47;7.70;;;6.50;99.90;;;;;;4880883;29;20632;-79
2023/04/22 03:22:54;;;;;;;9.67;7.73;;;6.50;99.90;;;;;;4880885;29;20217;-78
2023/04/22 03:25:22;;;;;;;9.17;7.70;;;6.40;99.90;;;;;;4881030;29;20245;-77
2023/04/22 03:27:50;;;;;;;11.33;8.17;;;6.40;99.90;;;;;;4890489;29;20392;-76
2023/04/22 03:30:18;;;;;;;12.23;8.30;;;6.40;99.90;;;;;;4889372;29;20221;-80
2023/04/22 03:32:47;;;;;;;12.57;8.37;;;6.40;99.90;;;;;;4888404;29;20210;-79
2023/04/22 03:35:15;;;;;;;10.80;7.63;;;6.40;99.90;;;;;;4880755;29;20586;-76
2023/04/22 03:37:43;;;;;;;12.23;8.20;;;6.40;99.90;;;;;;4892287;29;20304;-77
2023/04/22 03:40:13;;;;;;;10.50;7.87;;;6.40;99.90;;;;;;4888880;29;20237;-76
2023/04/22 03:42:41;;;;;;;11.60;8.30;;;6.40;99.90;;;;;;4880683;29;20222;-79
2023/04/22 03:45:09;;;;;;;11.63;8.23;;;6.40;99.90;;;;;;4880468;29;20246;-78
2023/04/22 03:47:37;;;;;;;11.13;8.07;;;6.40;99.90;;;;;;4887383;29;20230;-77
2023/04/22 03:50:07;;;;;;;9.00;8.03;;;6.30;99.90;;;;;;4880450;29;20266;-79
2023/04/22 03:52:35;;;;;;;13.93;8.53;;;6.20;99.90;;;;;;4882660;29;20214;-77
2023/04/22 03:55:04;;;;;;;11.67;8.50;;;6.20;99.90;;;;;;4890429;29;20197;-80
2023/04/22 03:57:36;;;;;;;11.77;8.70;;;6.20;99.90;;;;;;4893635;29;20210;-75
2023/04/22 04:00:05;;;;;;;13.23;8.67;;;6.10;99.90;;;;;;4891262;29;20572;-76
2023/04/22 04:02:34;;;;;;;11.13;8.57;;;6.10;99.90;;;;;;4889764;29;20213;-74
2023/04/22 04:05:02;;;;;;;10.67;8.50;;;6.10;99.90;;;;;;4891173;29;20222;-78
2023/04/22 04:07:31;;;;;;;9.80;7.97;;;6.10;99.90;;;;;;4893963;29;20240;-77
2023/04/22 04:09:59;;;;;;;12.00;8.40;;;6.00;99.90;;;;;;4891376;29;20301;-76
2023/04/22 04:12:27;;;;;;;9.47;8.13;;;6.00;99.90;;;;;;4890242;29;20242;-77
2023/04/22 04:14:57;;;;;;;11.63;8.27;;;5.90;99.90;;;;;;4892579;29;20741;-77
2023/04/22 04:17:27;;;;;;;12.87;8.10;;;5.80;99.90;;;;;;4889439;29;20294;-76
2023/04/22 04:19:56;;;;;;;10.57;7.90;;;5.80;99.90;;;;;;4885780;29;20692;-76
2023/04/22 04:22:24;;;;;;;9.07;7.80;;;5.80;99.90;;;;;;4890196;29;20212;-76
2023/04/22 04:24:54;;;;;;;9.97;8.30;;;5.80;99.90;;;;;;4887786;29;20222;-75
2023/04/22 04:27:23;;;;;;;13.17;9.33;;;5.70;99.90;;;;;;4889475;29;20747;-77
2023/04/22 04:29:51;;;;;;;10.47;8.77;;;5.70;99.90;;;;;;4889761;29;20218;-78
2023/04/22 04:32:21;;;;;;;11.50;8.83;;;5.70;99.90;;;;;;4889829;29;20206;-79
2023/04/22 04:34:49;;;;;;;10.27;8.37;;;5.70;99.90;;;;;;4894729;29;20222;-78
2023/04/22 04:37:18;;;;;;;12.07;8.77;;;5.70;99.90;;;;;;4894661;29;20210;-74
2023/04/22 04:39:47;;;;;;;11.63;8.77;;;5.70;99.90;;;;;;4887562;29;20745;-76
2023/04/22 04:42:15;;;;;;;13.87;8.87;;;5.80;99.90;;;;;;4889095;29;20209;-77
2023/04/22 04:44:44;;;;;;;17.90;9.00;;;5.80;99.90;;;;;;4888227;29;20234;-76
2023/04/22 04:47:13;;;;;;;13.87;9.17;;;5.90;99.90;;;;;;4886450;29;20198;-74
2023/04/22 04:49:44;;;;;;;11.60;9.23;;;5.90;99.90;;;;;;4890096;29;20312;-79
2023/04/22 04:52:12;;;;;;;10.10;8.57;;;5.90;99.90;;;;;;4895188;29;20560;-76
2023/04/22 04:54:41;;;;;;;11.30;9.17;;;5.90;99.90;;;;;;4887955;29;20210;-78
2023/04/22 04:57:09;;;;;;;11.17;8.40;;;5.90;99.90;;;;;;4888716;29;20240;-78
2023/04/22 04:59:37;;;;;;;12.63;9.03;;;6.00;99.90;;;;;;4891813;29;20214;-75
2023/04/22 05:02:06;;;;;;;11.53;9.20;;;6.00;99.90;;;;;;4887669;29;20728;-77
2023/04/22 05:04:34;;;;;;;13.13;9.60;;;6.00;99.90;;;;;;4887974;29;20205;-77
2023/04/22 05:07:04;;;;;;;11.43;8.53;;;6.10;99.90;;;;;;4888892;29;20208;-76
2023/04/22 05:09:36;;;;;;;12.43;9.30;;;6.20;99.90;;;;;;4889499;29;20212;-78
2023/04/22 05:12:07;;;;;;;11.60;9.10;;;6.30;99.90;;;;;;4893160;29;20210;-73
2023/04/22 05:14:36;;;;;;;13.00;9.67;;;6.40;99.90;;;;;;4892685;29;20206;-76
2023/04/22 05:17:04;;;;;;;10.87;8.70;;;6.50;99.90;;;;;;4879288;29;20222;-74
2023/04/22 05:19:32;;;;;;;13.13;8.33;;;6.50;99.90;;;;;;4880276;29;20313;-77
2023/04/22 05:22:00;;;;;;;11.57;8.97;;;6.50;99.90;;;;;;4879304;29;20214;-76
2023/04/22 05:24:30;;;;;;;13.57;9.30;;;6.60;99.90;;;;;;4879031;29;20318;-77
2023/04/22 05:26:58;;;;;;;16.90;8.90;;;6.60;99.90;;;;;;4895668;29;20233;-77
2023/04/22 05:29:27;;;;;;;17.87;9.13;;;6.70;99.90;;;;;;4890883;29;20243;-76
2023/04/22 05:31:55;;;;;;;15.10;8.47;;;6.80;99.90;;;;;;4887262;29;20293;-78
2023/04/22 05:34:23;;;;;;;9.80;7.80;;;6.80;99.90;;;;;;4888235;29;20206;-79
2023/04/22 05:36:52;;;;;;;10.60;7.77;;;6.90;99.90;;;;;;4889641;29;20202;-78
2023/04/22 05:39:20;;;;;;;12.87;8.27;;;7.00;99.90;;;;;;4886644;29;20659;-77
2023/04/22 05:41:50;;;;;;;12.57;7.97;;;7.00;99.90;;;;;;4883915;29;20210;-76
2023/04/22 05:44:18;;;;;;;11.53;8.20;;;7.10;99.90;;;;;;4880559;29;20211;-76
2023/04/22 05:46:47;;;;;;;10.40;7.97;;;7.20;99.90;;;;;;4886941;29;20277;-75
2023/04/22 05:49:15;;;;;;;11.60;7.07;;;7.20;99.90;;;;;;4895824;29;20213;-76
2023/04/22 05:51:43;;;;;;;8.80;7.30;;;7.40;99.90;;;;;;4904097;29;20250;-74
2023/04/22 05:54:12;;;;;;;9.57;7.00;;;7.50;99.90;;;;;;4894038;29;20207;-78
2023/04/22 05:56:40;;;;;;;11.53;7.77;;;7.60;99.90;;;;;;4886384;29;20230;-78
2023/04/22 05:59:10;;;;;;;7.47;6.67;;;7.70;99.90;;;;;;4887391;29;20294;-76
2023/04/22 06:01:38;;;;;;;8.67;6.87;;;7.80;99.90;;;;;;4889233;29;20569;-74
2023/04/22 06:04:08;;;;;;;10.33;6.93;;;8.00;99.90;;;;;;4887826;29;20209;-74
2023/04/22 06:06:37;;;;;;;8.20;6.00;;;8.40;99.90;;;;;;4890245;29;20697;-77
2023/04/22 06:09:06;;;;;;;10.47;6.27;;;9.10;99.90;;;;;;4878836;29;20708;-77
2023/04/22 06:11:35;;;;;;;6.70;4.90;;;10.10;99.90;;;;;;4891006;29;20240;-76
2023/04/22 06:14:03;;;;;;;7.10;5.17;;;11.10;99.90;;;;;;4896602;29;20262;-77
2023/04/22 06:16:33;;;;;;;6.83;4.53;;;12.20;99.90;;;;;;4896295;29;20293;-75
2023/04/22 06:19:01;;;;;;;4.87;4.10;;;13.70;99.90;;;;;;4896360;29;20292;-74
2023/04/22 06:21:31;;;;;;;6.63;4.30;;;14.50;99.90;;;;;;4880081;29;20269;-76
2023/04/22 06:24:00;;;;;;;6.73;4.23;;;15.50;99.90;;;;;;4878294;29;20210;-74
2023/04/22 06:26:28;;;;;;;7.17;4.20;;;16.60;99.90;;;;;;4878214;29;20252;-76
2023/04/22 06:28:56;;;;;;;8.10;3.63;;;17.20;99.90;;;;;;4878394;29;20301;-77
2023/04/22 06:31:24;;;;;;;5.40;3.63;;;18.20;99.90;;;;;;4878100;29;20218;-75
2023/04/22 06:33:54;;;;;;;4.63;3.57;;;18.90;99.90;;;;;;4878244;29;20220;-77
2023/04/22 06:36:22;;;;;;;4.97;3.77;;;18.30;99.90;;;;;;4878409;29;20214;-74
2023/04/22 06:38:50;;;;;;;5.83;3.13;;;18.80;98.70;;;;;;4878373;29;20210;-76
2023/04/22 06:41:18;;;;;;;6.73;3.30;;;19.50;99.00;;;;;;4878375;29;20250;-76
2023/04/22 06:43:48;;;;;;;4.67;3.40;;;20.00;97.20;;;;;;4877612;29;20218;-75
2023/04/22 06:46:17;;;;;;;4.90;3.13;;;20.40;94.30;;;;;;4878169;29;20284;-79
2023/04/22 06:48:45;;;;;;;3.57;2.77;;;21.40;93.70;;;;;;4877960;29;20242;-77
2023/04/22 06:51:15;;;;;;;4.07;3.20;;;21.80;85.00;;;;;;4878145;29;20234;-75
2023/04/22 06:53:43;;;;;;;4.57;3.17;;;20.90;87.40;;;;;;4877251;29;20229;-77
2023/04/22 06:56:11;;;;;;;5.03;3.07;;;20.80;88.00;;;;;;4893641;29;20212;-76
2023/04/22 06:58:39;;;;;;;38.87;7.07;;;20.20;90.70;;;;;;4896406;29;20262;-75
2023/04/22 07:01:07;;;;;;;6.57;4.00;;;20.30;89.80;;;;;;4896067;29;20679;-77
2023/04/22 07:03:35;;;;;;;7.47;4.83;;;20.70;91.10;;;;;;4894141;29;20652;-77
2023/04/22 07:06:05;;;;;;;15.87;5.07;;;20.60;90.30;;;;;;4895277;29;20238;-77
2023/04/22 07:08:34;;;;;;;4.03;3.00;;;20.20;89.00;;;;;;4896434;29;20209;-76
2023/04/22 07:11:02;;;;;;;5.23;3.10;;;19.90;90.20;;;;;;4896374;29;20278;-76
2023/04/22 07:13:32;;;;;;;3.23;2.93;;;20.20;90.90;;;;;;4895385;29;20233;-75
2023/04/22 07:16:04;;;;;;;6.40;2.73;;;20.80;85.40;;;;;;4896180;29;20244;-74
2023/04/22 07:18:34;;;;;;;4.63;3.07;;;20.80;88.90;;;;;;4898452;29;20222;-75
2023/04/22 07:21:02;;;;;;;5.07;2.60;;;21.90;84.70;;;;;;4894211;29;20245;-75
2023/04/22 07:23:30;;;;;;;4.85;2.42;;;22.40;82.50;;;;;;4878173;29;20225;-74
2023/04/22 07:25:59;;;;;;;3.90;2.15;;;23.00;78.90;;;;;;4878588;29;20230;-75
2023/04/22 07:28:28;;;;;;;5.45;2.75;;;23.50;77.80;;;;;;4879264;29;20214;-76
2023/04/22 07:30:56;;;;;;;4.55;3.22;;;22.40;76.60;;;;;;4899599;29;20704;-74
2023/04/22 07:33:24;;;;;;;7.00;2.88;;;21.90;79.00;;;;;;4898932;29;20206;-74
2023/04/22 07:35:52;;;;;;;4.57;2.42;;;22.30;80.30;;;;;;4898955;29;20690;-75
2023/04/22 07:38:20;;;;;;;2.67;2.42;;;21.40;80.60;;;;;;4897481;29;20213;-74
2023/04/22 07:40:49;;;;;;;5.18;2.63;;;22.30;78.10;;;;;;4900190;29;20209;-77
2023/04/22 07:43:18;;;;;;;5.03;2.65;;;23.00;76.10;;;;;;4899432;29;20292;-76
2023/04/22 07:45:46;;;;;;;3.08;2.10;;;22.70;77.10;;;;;;4897918;29;20482;-74
2023/04/22 07:48:15;;;;;;;3.75;2.38;;;23.60;75.80;;;;;;4894240;29;20202;-76
2023/04/22 07:50:45;;;;;;;3.70;2.40;;;23.20;75.70;;;;;;4903505;29;20752;-76
2023/04/22 07:53:14;;;;;;;3.85;2.20;;;24.00;72.50;;;;;;4899617;29;20209;-75
2023/04/22 07:55:42;;;;;;;3.85;2.28;;;24.90;69.40;;;;;;4898435;29;20324;-76
2023/04/22 07:58:10;;;;;;;2.50;2.30;;;24.90;66.60;;;;;;4899493;29;20265;-75
2023/04/22 08:00:40;;;;;;;2.22;1.95;;;25.20;68.60;;;;;;4898786;29;20643;-73
2023/04/22 08:03:08;;;;;;;5.13;2.03;;;25.10;64.20;;;;;;4889846;29;20639;-74
2023/04/22 08:05:37;;;;;;;3.95;3.20;;;24.90;64.60;;;;;;4879301;29;20705;-74
2023/04/22 08:08:05;;;;;;;3.80;2.33;;;25.60;62.80;;;;;;4883537;29;20296;-72
2023/04/22 08:10:33;;;;;;;3.28;2.10;;;25.50;62.10;;;;;;4890002;29;20215;-73
2023/04/22 08:13:01;;;;;;;4.70;2.15;;;25.30;62.90;;;;;;4879956;29;20477;-74
2023/04/22 08:15:30;;;;;;;2.75;2.30;;;25.00;62.40;;;;;;4880754;29;20214;-76
2023/04/22 08:17:59;;;;;;;3.22;2.30;;;25.10;63.30;;;;;;4879833;29;20234;-74
2023/04/22 08:20:28;;;;;;;3.28;2.30;;;25.40;62.40;;;;;;4880245;29;20214;-75
2023/04/22 08:22:59;;;;;;;4.82;2.40;;;25.40;63.90;;;;;;4879980;29;20289;-75
2023/04/22 08:25:27;;;;;;;3.38;2.40;;;25.70;61.80;;;;;;4880009;29;20645;-76
2023/04/22 08:27:55;;;;;;;3.28;2.10;;;25.30;61.80;;;;;;4880642;29;20233;-75
2023/04/22 08:30:24;;;;;;;4.03;2.30;;;25.70;61.80;;;;;;4881250;29;20226;-76
2023/04/22 08:32:52;;;;;;;2.63;2.00;;;26.10;60.70;;;;;;4880178;29;20308;-74
2023/04/22 08:35:22;;;;;;;3.15;2.30;;;26.40;60.70;;;;;;4898371;29;20209;-73
2023/04/22 08:37:50;;;;;;;4.03;2.53;;;25.80;59.20;;;;;;4896831;29;20783;-76
2023/04/22 08:40:18;;;;;;;4.78;2.20;;;25.70;61.10;;;;;;4897470;29;20210;-73
2023/04/22 08:42:48;;;;;;;3.28;2.20;;;25.60;60.30;;;;;;4893826;29;20217;-76
2023/04/22 08:45:16;;;;;;;3.78;2.30;;;25.80;61.80;;;;;;4889636;29;20309;-75
2023/04/22 08:47:45;;;;;;;2.22;2.03;;;26.80;63.70;;;;;;4894923;29;20491;-74
2023/04/22 08:50:13;;;;;;;4.30;2.40;;;27.70;60.10;;;;;;4898455;29;20217;-74
2023/04/22 08:52:43;;;;;;;3.38;2.13;;;26.80;59.60;;;;;;4893623;29;20219;-75
2023/04/22 08:55:12;;;;;;;3.13;2.75;;;27.10;58.80;;;;;;4879571;29;20210;-75
2023/04/22 08:57:40;;;;;;;2.53;2.00;;;27.00;57.20;;;;;;4879930;29;20230;-75
2023/04/22 09:00:09;;;;;;;2.72;2.20;;;27.00;57.20;;;;;;4880421;29;20218;-74
2023/04/22 09:02:43;;;;;;;2.65;2.00;;;27.00;57.50;;;;;;4879300;29;20302;-74
2023/04/22 09:05:15;;;;;;;4.47;1.95;;;27.80;56.40;;;;;;4886001;29;20209;-74
2023/04/22 09:07:45;;;;;;;2.88;2.10;;;28.40;56.30;;;;;;4898575;29;20221;-73
2023/04/22 09:10:14;;;;;;;3.00;2.38;;;27.90;55.00;;;;;;4899474;29;20213;-74
2023/04/22 09:12:43;;;;;;;1.92;1.83;;;27.70;55.40;;;;;;4892483;29;20210;-79
2023/04/22 09:15:12;;;;;;;3.28;2.17;;;27.40;54.70;;;;;;4890662;29;20234;-76
2023/04/22 09:17:42;;;;;;;3.40;2.08;;;27.50;55.80;;;;;;4885926;29;20234;-73
2023/04/22 09:20:11;;;;;;;2.40;2.20;;;28.90;55.50;;;;;;4888058;29;20217;-74
2023/04/22 09:22:42;;;;;;;2.47;1.95;;;29.60;52.60;;;;;;4883801;29;20354;-75
2023/04/22 09:25:17;;;;;;;2.92;2.00;;;28.50;54.50;;;;;;4880853;29;20217;-77
2023/04/22 09:27:49;;;;;;;4.70;2.33;;;28.30;54.20;;;;;;4880831;29;20202;-74
2023/04/22 09:30:22;;;;;;;2.50;2.13;;;27.30;55.20;;;;;;4880093;29;20224;-75
2023/04/22 09:32:55;;;;;;;2.22;2.03;;;27.20;55.00;;;;;;4879303;29;20210;-76
2023/04/22 09:35:27;;;;;;;3.30;2.00;;;27.00;55.80;;;;;;4878900;29;20274;-75
2023/04/22 09:37:56;;;;;;;4.35;2.20;;;28.00;55.90;;;;;;4878888;29;20222;-73
2023/04/22 09:40:26;;;;;;;2.28;1.90;;;27.60;54.90;;;;;;4878934;29;20222;-75
2023/04/22 09:42:56;;;;;;;2.22;2.03;;;27.60;53.90;;;;;;4878992;29;20677;-75
2023/04/22 09:45:34;;;;;;;2.03;1.80;;;27.20;53.40;;;;;;4879063;29;20218;-77
2023/04/22 09:48:08;;;;;;;2.70;2.10;;;26.80;55.10;;;;;;4879068;29;20679;-75
2023/04/22 09:50:37;;;;;;;3.88;2.08;;;26.00;56.30;;;;;;4878950;29;20215;-78
2023/04/22 09:53:07;;;;;;;4.28;2.30;;;26.20;58.20;;;;;;4878947;29;20250;-75
2023/04/22 09:55:40;;;;;;;3.63;1.70;;;26.00;60.20;;;;;;4878991;29;20250;-76
2023/04/22 09:58:11;;;;;;;2.08;1.75;;;26.60;56.00;;;;;;4878932;29;20226;-75
2023/04/22 10:00:45;;;;;;;2.75;1.60;;;27.30;56.70;;;;;;4879791;29;20260;-75
2023/04/22 10:03:14;;;;;;;2.85;1.70;;;28.10;53.80;;;;;;4880555;29;20205;-76
2023/04/22 10:05:44;;;;;;;2.35;1.60;;;27.80;53.60;;;;;;4888184;29;20308;-75
2023/04/22 10:08:14;;;;;;;2.03;1.80;;;28.30;51.80;;;;;;4890283;29;20214;-74
2023/04/22 10:10:46;;;;;;;2.65;1.65;;;28.20;51.10;;;;;;4880521;29;20214;-75
2023/04/22 10:13:14;;;;;;;2.17;1.70;;;28.00;51.40;;;;;;4880124;29;20336;-73
2023/04/22 10:15:44;;;;;;;2.10;1.90;;;27.20;51.60;;;;;;4879719;29;20214;-73
2023/04/22 10:18:16;;;;;;;1.88;1.63;;;27.20;52.30;;;;;;4879163;29;20233;-74
2023/04/22 10:20:46;;;;;;;1.95;1.40;;;27.70;53.30;;;;;;4879079;29;20222;-74
2023/04/22 10:23:18;;;;;;;1.77;1.60;;;27.60;51.60;;;;;;4879118;29;20241;-74
2023/04/22 10:25:50;;;;;;;2.40;1.40;;;28.10;49.00;;;;;;4878519;29;20301;-74
2023/04/22 10:28:21;;;;;;;2.03;1.70;;;28.00;52.20;;;;;;4879658;29;20197;-74
2023/04/22 10:30:50;;;;;;;1.65;1.50;;;27.50;51.30;;;;;;4879389;29;20217;-74
2023/04/22 10:33:37;;;;;;;1.77;1.60;;;27.50;50.90;;;;;;4879341;29;20218;-75
2023/04/22 10:36:09;;;;;;;1.88;1.60;;;27.40;52.80;;;;;;4879678;29;20198;-76
2023/04/22 10:38:39;;;;;;;1.95;1.70;;;27.20;51.30;;;;;;4879729;29;20218;-76
2023/04/22 10:41:14;;;;;;;1.90;1.70;;;27.90;50.20;;;;;;4880039;29;20210;-73
2023/04/22 10:43:43;;;;;;;1.83;1.67;;;28.20;49.40;;;;;;4880489;29;20480;-74
2023/04/22 10:46:45;;;;;;;3.28;1.50;;;29.00;49.90;;;;;;4880475;29;20301;-74
2023/04/22 10:49:19;;;;;;;1.70;1.60;;;29.10;49.50;;;;;;4879272;29;20216;-75
2023/04/22 10:51:49;;;;;;;1.80;1.70;;;28.70;48.80;;;;;;4879881;29;20221;-73
2023/04/22 10:54:51;;;;;;;3.30;1.73;;;29.00;51.40;;;;;;4880399;29;20259;-74
2023/04/22 10:57:22;;;;;;;2.22;1.45;;;28.80;48.80;;;;;;4880798;29;20221;-73
2023/04/22 10:59:53;;;;;;;2.00;1.50;;;28.00;47.60;;;;;;4880274;29;20458;-75
2023/04/22 11:02:24;;;;;;;2.00;1.70;;;27.30;48.50;;;;;;4879056;29;20702;-76
2023/04/22 11:05:20;;;;;;;1.75;1.60;;;27.10;51.60;;;;;;4892804;29;20217;-74
2023/04/22 11:07:52;;;;;;;1.70;1.60;;;26.30;51.10;;;;;;4886325;29;20214;-73
2023/04/22 11:10:43;;;;;;;1.88;1.67;;;26.60;49.80;;;;;;4881434;29;20203;-74
2023/04/22 11:13:15;;;;;;;2.55;1.65;;;26.10;51.30;;;;;;4879697;29;20238;-74
2023/04/22 11:15:44;;;;;;;1.60;1.50;;;25.20;53.20;;;;;;4882376;29;20289;-74
2023/04/22 11:18:18;;;;;;;2.13;1.48;;;24.80;53.80;;;;;;4899482;29;20238;-74
2023/04/22 11:20:48;;;;;;;2.15;1.70;;;24.70;55.30;;;;;;4904075;29;20205;-74
2023/04/22 11:23:22;;;;;;;3.17;1.50;;;24.90;54.90;;;;;;4899751;29;20217;-74
2023/04/22 11:25:55;;;;;;;2.87;1.60;;;24.60;55.00;;;;;;4899136;29;20217;-76
2023/04/22 11:28:25;;;;;;;2.87;1.70;;;24.50;54.10;;;;;;4900133;29;20197;-73
2023/04/22 11:30:53;;;;;;;1.60;1.50;;;24.20;55.80;;;;;;4899508;29;20234;-75
2023/04/22 11:33:21;;;;;;;2.00;1.70;;;24.30;56.00;;;;;;4899483;29;20224;-74
2023/04/22 11:35:50;;;;;;;2.40;1.60;;;23.90;55.50;;;;;;4887931;29;20218;-73
2023/04/22 11:38:19;;;;;;;2.63;1.70;;;24.30;56.60;;;;;;4880178;29;20292;-75
2023/04/22 11:40:47;;;;;;;1.70;1.60;;;23.90;56.60;;;;;;4880797;29;20316;-73
2023/04/22 11:43:17;;;;;;;1.70;1.60;;;23.70;56.40;;;;;;4879851;29;20218;-75
2023/04/22 11:45:47;;;;;;;2.17;1.60;;;23.20;56.60;;;;;;4880037;29;20308;-72
2023/04/22 11:48:15;;;;;;;1.53;1.43;;;23.10;57.10;;;;;;4880370;29;20246;-73
2023/04/22 11:50:44;;;;;;;1.63;1.53;;;23.10;57.00;;;;;;4881061;29;20301;-73
2023/04/22 11:53:16;;;;;;;2.97;1.53;;;23.30;57.90;;;;;;4879929;29;20214;-73
2023/04/22 11:55:46;;;;;;;1.87;1.70;;;23.80;57.20;;;;;;4881183;29;20249;-73
2023/04/22 11:58:17;;;;;;;2.90;1.80;;;23.50;57.80;;;;;;4880822;29;20214;-74
2023/04/22 12:00:48;;;;;;;2.33;1.70;;;23.50;57.50;;;;;;4895704;29;20213;-72
2023/04/22 12:03:18;;;;;;;3.43;1.50;;;23.50;56.80;;;;;;4901876;29;20763;-73
2023/04/22 12:05:49;;;;;;;2.20;1.83;;;24.00;58.10;;;;;;4901690;29;20232;-71
2023/04/22 12:08:19;;;;;;;3.93;1.80;;;22.90;56.40;;;;;;4892343;29;20221;-75
2023/04/22 12:10:51;;;;;;;3.10;1.87;;;23.10;57.30;;;;;;4880753;29;20661;-72
2023/04/22 12:13:20;;;;;;;3.40;1.80;;;23.20;58.10;;;;;;4880330;29;20316;-74
2023/04/22 12:15:54;;;;;;;4.57;1.90;;;23.10;59.30;;;;;;4879556;29;20219;-73
2023/04/22 12:18:29;;;;;;;2.60;1.60;;;22.90;59.30;;;;;;4880374;29;20224;-73
2023/04/22 12:20:59;;;;;;;3.10;1.93;;;23.30;59.60;;;;;;4880897;29;20421;-77
2023/04/22 12:23:28;;;;;;;2.73;1.97;;;23.30;58.10;;;;;;4880281;29;20261;-73
2023/04/22 12:25:56;;;;;;;1.80;1.70;;;23.50;59.10;;;;;;4880700;29;20253;-74
2023/04/22 12:28:30;;;;;;;2.60;1.60;;;23.70;57.30;;;;;;4880445;29;20313;-73
2023/04/22 12:30:59;;;;;;;1.70;1.60;;;24.00;57.70;;;;;;4880118;29;20225;-73
2023/04/22 12:33:27;;;;;;;2.23;1.80;;;24.10;58.00;;;;;;4879921;29;20211;-74
2023/04/22 12:35:55;;;;;;;2.17;1.70;;;24.10;56.70;;;;;;4892619;29;20550;-73
2023/04/22 12:38:23;;;;;;;2.17;1.70;;;23.90;57.20;;;;;;4898876;29;20210;-76
2023/04/22 12:40:52;;;;;;;1.67;1.57;;;24.20;56.00;;;;;;4898674;29;20225;-74
2023/04/22 12:43:20;;;;;;;2.90;1.60;;;24.30;56.30;;;;;;4885175;29;20267;-76
2023/04/22 12:45:48;;;;;;;2.93;1.70;;;24.40;56.90;;;;;;4879478;29;20365;-76
2023/04/22 12:48:17;;;;;;;1.93;1.63;;;24.40;57.10;;;;;;4879905;29;20242;-76
2023/04/22 12:50:46;;;;;;;2.13;1.70;;;24.00;57.40;;;;;;4879505;29;20733;-75
2023/04/22 12:53:15;;;;;;;2.90;1.70;;;24.10;57.50;;;;;;4879505;29;20216;-74
2023/04/22 12:55:43;;;;;;;2.53;1.73;;;23.40;56.10;;;;;;4879653;29;20257;-75
2023/04/22 12:58:15;;;;;;;3.07;1.50;;;23.30;56.50;;;;;;4879170;29;20214;-74
2023/04/22 13:00:43;;;;;;;1.70;1.60;;;23.10;56.10;;;;;;4892219;29;20236;-76